createdAt,value
2022-12-08T00:01:01.541Z,10.13
2022-12-08T00:03:28.064Z,10.17
2022-12-08T00:05:54.618Z,10.24
2022-12-08T00:08:21.040Z,10.54
2022-12-08T00:10:49.339Z,10.48
2022-12-08T00:13:15.972Z,10.43
2022-12-08T00:15:42.328Z,10.42
2022-12-08T00:18:08.709Z,10.35
2022-12-08T00:20:35.054Z,10.53
2022-12-08T00:23:01.394Z,10.15
2022-12-08T00:25:27.740Z,10.30
2022-12-08T00:27:54.126Z,10.28
2022-12-08T00:30:20.518Z,10.25
2022-12-08T00:32:46.909Z,10.22
2022-12-08T00:35:13.309Z,9.90
2022-12-08T00:37:39.659Z,9.72
2022-12-08T00:40:06.430Z,9.90
2022-12-08T00:42:33.105Z,9.94
2022-12-08T00:44:59.517Z,10.01
2022-12-08T00:47:25.917Z,10.05
2022-12-08T00:49:52.263Z,9.80
2022-12-08T00:52:18.624Z,9.79
2022-12-08T00:54:44.953Z,9.89
2022-12-08T00:57:11.327Z,9.68
2022-12-08T00:59:37.702Z,9.95
2022-12-08T01:02:04.078Z,9.79
2022-12-08T01:04:30.429Z,9.88
2022-12-08T01:06:56.808Z,9.70
2022-12-08T01:09:23.175Z,9.72
2022-12-08T01:11:49.583Z,9.62
2022-12-08T01:14:15.977Z,9.78
2022-12-08T01:16:42.411Z,9.68
2022-12-08T01:19:08.802Z,9.80
2022-12-08T01:21:35.197Z,9.85
2022-12-08T01:24:01.549Z,9.95
2022-12-08T01:26:27.921Z,9.98
2022-12-08T01:28:54.282Z,10.02
2022-12-08T01:31:20.720Z,10.07
2022-12-08T01:33:47.133Z,9.82
2022-12-08T01:36:13.491Z,9.78
2022-12-08T01:38:39.824Z,9.69
2022-12-08T01:41:06.208Z,9.58
2022-12-08T01:43:32.591Z,9.36
2022-12-08T01:45:59.010Z,9.34
2022-12-08T01:48:25.446Z,9.19
2022-12-08T01:50:51.845Z,9.58
2022-12-08T01:53:18.191Z,9.27
2022-12-08T01:55:44.540Z,9.20
2022-12-08T01:58:10.925Z,9.42
2022-12-08T02:00:37.262Z,9.58
2022-12-08T02:03:03.680Z,9.83
2022-12-08T02:05:30.150Z,9.64
2022-12-08T02:07:56.505Z,9.68
2022-12-08T02:10:22.881Z,9.82
2022-12-08T02:12:49.223Z,9.81
2022-12-08T02:15:15.559Z,9.88
2022-12-08T02:17:41.886Z,9.80
2022-12-08T02:20:08.268Z,9.19
2022-12-08T02:22:34.618Z,9.38
2022-12-08T02:25:00.948Z,9.51
2022-12-08T02:27:27.329Z,9.37
2022-12-08T02:29:53.671Z,9.25
2022-12-08T02:32:20.059Z,9.38
2022-12-08T02:34:46.414Z,9.58
2022-12-08T02:37:12.782Z,9.72
2022-12-08T02:39:39.172Z,10.08
2022-12-08T02:42:05.562Z,10.15
2022-12-08T02:44:31.976Z,10.33
2022-12-08T02:46:58.332Z,10.34
2022-12-08T02:49:24.658Z,10.37
2022-12-08T02:51:50.992Z,10.52
2022-12-08T02:54:17.348Z,10.36
2022-12-08T02:56:43.739Z,10.32
2022-12-08T02:59:10.159Z,10.28
2022-12-08T03:01:37.781Z,10.46
2022-12-08T03:04:04.258Z,10.55
2022-12-08T03:06:30.640Z,10.48
2022-12-08T03:08:56.978Z,10.54
2022-12-08T03:11:23.355Z,10.47
2022-12-08T03:13:49.759Z,10.53
2022-12-08T03:16:16.148Z,10.47
2022-12-08T03:18:44.194Z,10.44
2022-12-08T03:21:10.742Z,10.54
2022-12-08T03:23:37.158Z,10.42
2022-12-08T03:26:03.552Z,10.49
2022-12-08T03:28:29.972Z,10.57
2022-12-08T03:30:56.380Z,10.60
2022-12-08T03:33:22.744Z,10.52
2022-12-08T03:35:49.138Z,10.53
2022-12-08T03:38:15.466Z,10.52
2022-12-08T03:40:41.802Z,10.66
2022-12-08T03:43:08.184Z,10.69
2022-12-08T03:45:34.586Z,10.72
2022-12-08T03:48:00.939Z,10.60
2022-12-08T03:50:27.302Z,10.62
2022-12-08T03:52:53.628Z,10.34
2022-12-08T03:55:20.020Z,10.27
2022-12-08T03:57:46.374Z,10.43
2022-12-08T04:00:12.765Z,10.41
2022-12-08T04:02:39.152Z,10.45
2022-12-08T04:05:05.554Z,10.42
2022-12-08T04:07:31.941Z,10.32
2022-12-08T04:09:58.310Z,10.01
2022-12-08T04:12:24.637Z,10.28
2022-12-08T04:14:51.027Z,10.49
2022-12-08T04:17:17.372Z,10.68
2022-12-08T04:19:43.753Z,10.69
2022-12-08T04:22:10.184Z,10.66
2022-12-08T04:24:36.562Z,10.47
2022-12-08T04:27:02.948Z,10.30
2022-12-08T04:29:29.290Z,10.20
2022-12-08T04:31:55.753Z,10.41
2022-12-08T04:34:22.206Z,10.28
2022-12-08T04:36:48.607Z,10.04
2022-12-08T04:39:14.965Z,9.88
2022-12-08T04:41:41.339Z,9.88
2022-12-08T04:44:07.703Z,10.08
2022-12-08T04:46:35.161Z,10.25
2022-12-08T04:49:03.166Z,10.21
2022-12-08T04:51:29.511Z,10.37
2022-12-08T04:53:55.892Z,10.38
2022-12-08T04:56:22.271Z,10.29
2022-12-08T04:58:48.672Z,10.10
2022-12-08T05:01:15.100Z,10.13
2022-12-08T05:03:41.532Z,10.23
2022-12-08T05:06:07.918Z,9.94
2022-12-08T05:08:34.345Z,10.18
2022-12-08T05:11:00.751Z,9.82
2022-12-08T05:13:27.095Z,9.86
2022-12-08T05:15:53.452Z,10.06
2022-12-08T05:18:19.848Z,10.31
2022-12-08T05:20:46.199Z,10.19
2022-12-08T05:23:12.586Z,10.13
2022-12-08T05:25:38.974Z,10.32
2022-12-08T05:28:39.131Z,10.04
2022-12-08T05:30:51.668Z,10.06
2022-12-08T05:33:18.035Z,10.22
2022-12-08T05:35:44.413Z,10.51
2022-12-08T05:38:10.798Z,10.62
2022-12-08T05:40:37.193Z,10.57
2022-12-08T05:43:03.540Z,10.48
2022-12-08T05:45:29.914Z,10.15
2022-12-08T05:47:56.325Z,10.55
2022-12-08T05:50:22.670Z,10.41
2022-12-08T05:52:49.050Z,10.52
2022-12-08T05:55:15.415Z,10.50
2022-12-08T05:57:41.765Z,10.48
2022-12-08T06:00:08.298Z,10.37
2022-12-08T06:02:34.854Z,10.44
2022-12-08T06:05:01.267Z,10.48
2022-12-08T06:07:27.616Z,10.48
2022-12-08T06:09:53.955Z,10.43
2022-12-08T06:12:20.295Z,10.50
2022-12-08T06:14:46.678Z,9.99
2022-12-08T06:17:13.057Z,10.17
2022-12-08T06:19:42.182Z,10.18
2022-12-08T06:22:08.574Z,10.11
2022-12-08T06:24:37.929Z,10.53
2022-12-08T06:27:04.321Z,10.63
2022-12-08T06:29:30.727Z,10.52
2022-12-08T06:31:57.285Z,10.31
2022-12-08T06:34:23.697Z,10.11
2022-12-08T06:36:50.191Z,10.24
2022-12-08T06:39:16.569Z,10.06
2022-12-08T06:41:42.953Z,10.04
2022-12-08T06:44:09.350Z,10.40
2022-12-08T06:46:35.738Z,10.43
2022-12-08T06:49:02.146Z,10.41
2022-12-08T06:51:28.499Z,10.48
2022-12-08T06:53:54.866Z,10.36
2022-12-08T06:56:21.257Z,10.38
2022-12-08T06:58:52.416Z,10.45
2022-12-08T07:01:19.380Z,10.52
2022-12-08T07:03:45.854Z,10.31
2022-12-08T07:06:12.211Z,10.38
2022-12-08T07:08:38.613Z,10.46
2022-12-08T07:11:04.945Z,10.46
2022-12-08T07:13:31.332Z,10.52
2022-12-08T07:15:57.726Z,10.40
2022-12-08T07:18:24.119Z,10.55
2022-12-08T07:20:50.463Z,10.55
2022-12-08T07:23:16.801Z,10.60
2022-12-08T07:25:43.194Z,10.40
2022-12-08T07:28:09.548Z,10.41
2022-12-08T07:30:35.959Z,10.36
2022-12-08T07:33:02.358Z,10.40
2022-12-08T07:35:28.716Z,10.35
2022-12-08T07:37:55.105Z,10.26
2022-12-08T07:40:21.505Z,10.29
2022-12-08T07:42:47.890Z,10.31
2022-12-08T07:45:14.267Z,10.38
2022-12-08T07:47:40.606Z,10.36
2022-12-08T07:50:07.095Z,10.37
2022-12-08T07:52:33.598Z,10.41
2022-12-08T07:55:00.008Z,10.54
2022-12-08T07:57:26.414Z,10.53
2022-12-08T07:59:52.820Z,10.61
2022-12-08T08:02:24.792Z,10.66
2022-12-08T08:04:52.349Z,10.45
2022-12-08T08:07:18.856Z,10.30
2022-12-08T08:09:45.357Z,10.40
2022-12-08T08:12:30.365Z,10.46
2022-12-08T08:14:57.480Z,10.37
2022-12-08T08:17:23.951Z,10.54
2022-12-08T08:19:50.415Z,10.57
2022-12-08T08:22:16.758Z,10.52
2022-12-08T08:24:45.079Z,10.74
2022-12-08T08:27:11.769Z,10.92
2022-12-08T08:29:38.160Z,10.67
2022-12-08T08:32:04.551Z,10.74
2022-12-08T08:34:30.946Z,10.44
2022-12-08T08:36:57.404Z,10.46
2022-12-08T08:39:23.837Z,10.69
2022-12-08T08:41:50.229Z,10.74
2022-12-08T08:44:16.617Z,10.86
2022-12-08T08:46:43.060Z,10.87
2022-12-08T08:49:09.504Z,10.85
2022-12-08T08:51:35.925Z,10.90
2022-12-08T08:54:02.318Z,10.77
2022-12-08T08:56:28.691Z,10.95
2022-12-08T08:58:55.090Z,10.99
2022-12-08T09:01:21.491Z,11.06
2022-12-08T09:03:47.910Z,11.13
2022-12-08T09:06:14.329Z,11.09
2022-12-08T09:08:40.782Z,10.98
2022-12-08T09:11:07.150Z,11.03
2022-12-08T09:13:33.527Z,11.15
2022-12-08T09:15:59.927Z,10.89
2022-12-08T09:18:26.347Z,10.74
2022-12-08T09:20:52.741Z,10.93
2022-12-08T09:23:19.116Z,10.92
2022-12-08T09:25:45.506Z,10.88
2022-12-08T09:28:11.864Z,10.72
2022-12-08T09:30:38.251Z,10.67
2022-12-08T09:33:04.653Z,10.65
2022-12-08T09:35:31.053Z,10.75
2022-12-08T09:37:57.457Z,10.64
2022-12-08T09:40:23.855Z,10.70
2022-12-08T09:42:50.258Z,10.67
2022-12-08T09:45:16.614Z,10.64
2022-12-08T09:47:43.002Z,10.56
2022-12-08T09:50:09.428Z,10.44
2022-12-08T09:52:35.823Z,10.61
2022-12-08T09:55:02.331Z,10.49
2022-12-08T09:57:28.667Z,10.40
2022-12-08T09:59:55.058Z,10.04
2022-12-08T10:02:21.499Z,10.13
2022-12-08T10:04:48.022Z,9.90
2022-12-08T10:07:14.396Z,10.44
2022-12-08T10:09:41.051Z,10.60
2022-12-08T10:12:07.509Z,10.57
2022-12-08T10:14:33.960Z,10.51
2022-12-08T10:17:00.451Z,10.80
2022-12-08T10:19:26.864Z,10.85
2022-12-08T10:21:53.232Z,10.86
2022-12-08T10:24:19.577Z,10.68
2022-12-08T10:26:45.954Z,11.00
2022-12-08T10:29:12.304Z,11.06
2022-12-08T10:31:38.891Z,11.01
2022-12-08T10:34:05.318Z,11.18
2022-12-08T10:36:31.719Z,11.18
2022-12-08T10:38:58.079Z,11.17
2022-12-08T10:41:24.457Z,11.08
2022-12-08T10:43:50.852Z,10.96
2022-12-08T10:46:17.328Z,11.17
2022-12-08T10:48:43.727Z,11.25
2022-12-08T10:51:10.080Z,11.20
2022-12-08T10:53:36.439Z,11.17
2022-12-08T10:56:02.849Z,11.18
2022-12-08T10:58:29.337Z,11.09
2022-12-08T11:00:55.815Z,11.08
2022-12-08T11:03:22.252Z,10.93
2022-12-08T11:05:48.588Z,10.87
2022-12-08T11:08:15.029Z,10.63
2022-12-08T11:10:41.434Z,10.72
2022-12-08T11:13:07.793Z,10.41
2022-12-08T11:15:34.143Z,10.68
2022-12-08T11:18:00.533Z,10.80
2022-12-08T11:20:26.920Z,10.58
2022-12-08T11:22:53.301Z,10.69
2022-12-08T11:25:19.697Z,10.21
2022-12-08T11:27:46.076Z,10.67
2022-12-08T11:30:14.583Z,10.96
2022-12-08T11:32:41.421Z,11.03
2022-12-08T11:35:07.774Z,11.04
2022-12-08T11:37:35.195Z,11.08
2022-12-08T11:40:01.919Z,11.23
2022-12-08T11:42:28.450Z,11.22
2022-12-08T11:44:54.800Z,11.45
2022-12-08T11:47:21.189Z,11.42
2022-12-08T11:52:13.770Z,11.47
2022-12-08T11:54:40.129Z,11.25
2022-12-08T11:57:06.492Z,11.51
2022-12-08T11:59:32.856Z,11.47
2022-12-08T12:01:59.383Z,11.63
2022-12-08T12:04:25.788Z,11.74
2022-12-08T12:06:55.712Z,11.72
2022-12-08T12:09:22.227Z,11.71
2022-12-08T12:11:48.563Z,11.55
2022-12-08T12:14:14.960Z,11.72
2022-12-08T12:16:41.448Z,11.55
2022-12-08T12:19:07.911Z,11.60
2022-12-08T12:21:34.300Z,11.63
2022-12-08T12:24:00.649Z,11.57
2022-12-08T12:26:27.000Z,11.59
2022-12-08T12:28:53.458Z,11.67
2022-12-08T12:31:19.900Z,11.77
2022-12-08T12:33:46.330Z,11.55
2022-12-08T12:36:12.685Z,11.63
2022-12-08T12:38:39.062Z,11.70
2022-12-08T12:41:05.411Z,11.40
2022-12-08T12:43:31.750Z,11.38
2022-12-08T12:45:58.171Z,11.33
2022-12-08T12:48:24.651Z,11.27
2022-12-08T12:50:51.048Z,11.19
2022-12-08T12:53:17.456Z,11.37
2022-12-08T12:55:43.842Z,11.51
2022-12-08T12:58:10.203Z,11.51
2022-12-08T13:00:36.547Z,11.41
2022-12-08T13:03:03.006Z,11.35
2022-12-08T13:05:29.413Z,11.35
2022-12-08T13:07:55.792Z,11.40
2022-12-08T13:10:22.181Z,11.40
2022-12-08T13:12:48.522Z,11.37
2022-12-08T13:15:14.870Z,11.45
2022-12-08T13:17:41.210Z,11.43
2022-12-08T13:20:08.043Z,11.47
2022-12-08T13:22:34.532Z,11.41
2022-12-08T13:25:00.921Z,11.24
2022-12-08T13:27:27.323Z,11.52
2022-12-08T13:29:53.717Z,11.43
2022-12-08T13:32:20.140Z,11.30
2022-12-08T13:34:46.539Z,11.13
2022-12-08T13:37:12.891Z,11.26
2022-12-08T13:39:39.236Z,11.35
2022-12-08T13:42:05.619Z,11.29
2022-12-08T13:45:18.474Z,11.30
2022-12-08T13:47:33.237Z,11.18
2022-12-08T13:56:51.286Z,11.14
2022-12-08T13:58:19.493Z,10.99
2022-12-08T14:00:45.868Z,11.00
2022-12-08T14:03:12.319Z,11.16
2022-12-08T14:06:10.516Z,11.10
2022-12-08T14:08:50.708Z,11.01
2022-12-08T14:11:11.455Z,10.50
2022-12-08T14:13:37.815Z,10.41
2022-12-08T14:16:04.211Z,10.47
2022-12-08T14:18:30.584Z,10.50
2022-12-08T14:21:19.937Z,10.29
2022-12-08T14:23:43.324Z,10.01
2022-12-08T14:26:09.705Z,10.59
2022-12-08T14:28:40.041Z,10.50
2022-12-08T14:31:09.458Z,10.45
2022-12-08T14:33:35.866Z,10.43
2022-12-08T14:36:02.254Z,10.83
2022-12-08T14:38:28.679Z,10.75
2022-12-08T14:40:55.162Z,11.11
2022-12-08T14:43:21.584Z,10.80
2022-12-08T14:45:47.982Z,10.63
2022-12-08T14:48:14.367Z,10.86
2022-12-08T14:50:40.783Z,11.17
2022-12-08T14:53:07.131Z,10.96
2022-12-08T14:55:33.471Z,11.11
2022-12-08T14:57:59.862Z,11.05
2022-12-08T15:00:26.225Z,11.03
2022-12-08T15:02:52.615Z,10.63
2022-12-08T15:05:19.049Z,10.57
2022-12-08T15:07:45.535Z,10.33
2022-12-08T15:10:11.999Z,10.31
2022-12-08T15:12:38.360Z,10.31
2022-12-08T15:15:04.715Z,10.40
2022-12-08T15:17:31.140Z,10.44
2022-12-08T15:19:57.534Z,10.38
2022-12-08T15:22:23.872Z,10.54
2022-12-08T15:24:50.223Z,10.51
2022-12-08T15:27:16.621Z,10.13
2022-12-08T15:29:43.000Z,9.92
2022-12-08T15:32:09.349Z,9.91
2022-12-08T15:34:35.726Z,9.74
2022-12-08T15:37:02.116Z,9.81
2022-12-08T15:39:28.518Z,10.15
2022-12-08T15:41:56.049Z,10.43
2022-12-08T15:44:22.446Z,10.38
2022-12-08T15:46:48.834Z,10.43
2022-12-08T15:49:15.265Z,10.49
2022-12-08T15:51:41.618Z,10.44
2022-12-08T15:54:08.009Z,10.40
2022-12-08T15:56:37.382Z,10.56
2022-12-08T15:59:07.596Z,10.44
2022-12-08T16:01:34.061Z,10.51
2022-12-08T16:09:33.486Z,9.89
2022-12-08T16:12:09.615Z,9.93
2022-12-08T16:17:22.987Z,9.84
2022-12-08T16:19:49.371Z,10.04
2022-12-08T16:25:17.759Z,10.16
2022-12-08T16:28:08.406Z,10.38
2022-12-08T16:30:31.262Z,10.25
2022-12-08T16:32:57.645Z,10.52
2022-12-08T16:35:23.998Z,10.47
2022-12-08T16:37:50.377Z,10.60
2022-12-08T16:40:16.781Z,10.31
2022-12-08T16:42:43.179Z,10.23
2022-12-08T16:45:09.530Z,10.34
2022-12-08T16:47:35.889Z,10.32
2022-12-08T16:50:02.247Z,10.38
2022-12-08T16:52:28.625Z,10.37
2022-12-08T16:54:55.027Z,10.50
2022-12-08T16:57:21.389Z,10.37
2022-12-08T16:59:47.718Z,10.15
2022-12-08T17:02:16.629Z,10.36
2022-12-08T17:04:43.204Z,10.55
2022-12-08T17:07:09.769Z,10.59
2022-12-08T17:09:36.155Z,10.49
2022-12-08T17:12:04.253Z,10.41
2022-12-08T17:14:30.888Z,10.16
2022-12-08T17:16:57.322Z,10.19
2022-12-08T17:19:23.712Z,10.23
2022-12-08T17:21:50.042Z,10.24
2022-12-08T17:24:21.761Z,10.28
2022-12-08T17:26:48.492Z,10.17
2022-12-08T17:29:14.913Z,10.17
2022-12-08T17:31:41.336Z,9.88
2022-12-08T17:34:07.744Z,10.04
2022-12-08T17:36:34.137Z,10.18
2022-12-08T17:39:00.567Z,10.34
2022-12-08T17:41:26.981Z,10.48
2022-12-08T17:43:53.369Z,10.54
2022-12-08T17:46:19.945Z,10.56
2022-12-08T17:48:46.386Z,10.46
2022-12-08T17:51:12.738Z,10.50
2022-12-08T17:53:39.151Z,10.35
2022-12-08T17:56:05.558Z,10.45
2022-12-08T17:58:31.911Z,10.24
2022-12-08T18:00:58.330Z,10.06
2022-12-08T18:03:24.775Z,10.31
2022-12-08T18:05:51.158Z,10.37
2022-12-08T18:08:17.532Z,10.15
2022-12-08T18:10:43.973Z,10.08
2022-12-08T18:13:10.371Z,10.13
2022-12-08T18:15:39.341Z,9.92
2022-12-08T18:18:05.872Z,9.95
2022-12-08T18:20:32.255Z,9.81
2022-12-08T18:22:58.587Z,10.00
2022-12-08T18:25:24.924Z,9.87
2022-12-08T18:27:51.282Z,9.82
2022-12-08T18:30:17.675Z,10.09
2022-12-08T18:32:44.084Z,10.04
2022-12-08T18:35:10.494Z,9.84
2022-12-08T18:37:36.890Z,9.89
2022-12-08T18:40:03.525Z,9.94
2022-12-08T18:42:30.165Z,10.06
2022-12-08T18:44:56.519Z,10.11
2022-12-08T18:47:22.882Z,10.18
2022-12-08T18:49:49.242Z,10.13
2022-12-08T18:52:19.285Z,10.16
2022-12-08T18:55:05.681Z,10.10
2022-12-08T18:57:33.319Z,9.69
2022-12-08T18:59:59.696Z,9.64
2022-12-08T19:02:26.172Z,9.52
2022-12-08T19:04:53.993Z,9.63
2022-12-08T19:07:20.409Z,9.56
2022-12-08T19:09:46.766Z,9.81
2022-12-08T19:12:13.161Z,9.74
2022-12-08T19:14:39.496Z,10.03
2022-12-08T19:17:05.882Z,9.72
2022-12-08T19:19:32.252Z,9.82
2022-12-08T19:21:58.629Z,9.76
2022-12-08T19:24:24.993Z,9.49
2022-12-08T19:26:51.372Z,9.07
2022-12-08T19:29:17.785Z,9.19
2022-12-08T19:31:44.195Z,9.40
2022-12-08T19:34:10.569Z,9.74
2022-12-08T19:36:36.898Z,9.62
2022-12-08T19:39:03.361Z,9.71
2022-12-08T19:41:29.727Z,9.87
2022-12-08T19:43:56.114Z,9.76
2022-12-08T19:46:22.646Z,9.90
2022-12-08T19:48:49.173Z,9.95
2022-12-08T19:51:15.519Z,9.97
2022-12-08T19:53:47.194Z,9.96
2022-12-08T19:56:14.094Z,9.96
2022-12-08T19:58:40.453Z,9.72
2022-12-08T20:01:06.808Z,9.99
2022-12-08T20:03:33.228Z,9.97
2022-12-08T20:05:59.674Z,9.90
2022-12-08T20:08:26.053Z,9.75
2022-12-08T20:10:52.465Z,9.70
2022-12-08T20:13:18.855Z,9.57
2022-12-08T20:15:45.304Z,9.52
2022-12-08T20:18:11.793Z,9.42
2022-12-08T20:20:38.161Z,9.03
2022-12-08T20:23:04.543Z,8.96
2022-12-08T20:25:30.956Z,8.94
2022-12-08T20:27:57.371Z,9.00
2022-12-08T20:30:23.955Z,8.89
2022-12-08T20:32:50.356Z,8.61
2022-12-08T20:35:16.800Z,9.02
2022-12-08T20:37:43.167Z,8.70
2022-12-08T20:40:09.558Z,8.82
2022-12-08T20:42:35.914Z,8.78
2022-12-08T20:45:02.328Z,8.61
2022-12-08T20:47:28.865Z,8.73
2022-12-08T20:49:55.435Z,8.19
2022-12-08T20:52:21.901Z,8.71
2022-12-08T20:54:48.362Z,8.59
2022-12-08T20:57:14.775Z,8.82
2022-12-08T20:59:41.228Z,8.76
2022-12-08T21:02:07.685Z,8.84
2022-12-08T21:04:34.274Z,9.19
2022-12-08T21:07:00.724Z,9.04
2022-12-08T21:09:27.283Z,9.08
2022-12-08T21:11:54.029Z,9.12
2022-12-08T21:14:20.543Z,9.29
2022-12-08T21:16:47.191Z,9.63
2022-12-08T21:19:13.720Z,9.45
2022-12-08T21:21:40.209Z,9.26
2022-12-08T21:24:06.880Z,9.18
2022-12-08T21:26:33.465Z,9.28
2022-12-08T21:28:59.942Z,9.58
2022-12-08T21:31:26.506Z,9.72
2022-12-08T21:33:52.984Z,9.32
2022-12-08T21:36:19.400Z,9.59
2022-12-08T21:38:45.915Z,9.44
2022-12-08T21:41:12.290Z,9.65
2022-12-08T21:43:38.859Z,9.64
2022-12-08T21:46:05.352Z,9.66
2022-12-08T21:48:31.917Z,9.49
2022-12-08T21:50:58.392Z,9.36
2022-12-08T21:53:24.779Z,9.26
2022-12-08T21:55:51.140Z,9.19
2022-12-08T21:58:17.645Z,9.44
2022-12-08T22:00:44.286Z,9.55
2022-12-08T22:03:10.860Z,9.68
2022-12-08T22:05:37.568Z,9.68
2022-12-08T22:08:04.119Z,9.44
2022-12-08T22:10:30.615Z,9.40
2022-12-08T22:12:57.154Z,9.40
2022-12-08T22:15:23.673Z,9.44
2022-12-08T22:17:50.059Z,9.32
2022-12-08T22:20:16.859Z,9.25
2022-12-08T22:22:43.470Z,9.29
2022-12-08T22:25:09.887Z,9.18
2022-12-08T22:27:36.599Z,9.03
2022-12-08T22:30:03.185Z,9.14
2022-12-08T22:32:29.825Z,9.18
2022-12-08T22:34:56.286Z,9.42
2022-12-08T22:37:22.677Z,9.32
2022-12-08T22:39:49.071Z,9.47
2022-12-08T22:42:15.567Z,9.51
2022-12-08T22:44:42.133Z,9.70
2022-12-08T22:47:08.633Z,9.02
2022-12-08T22:49:35.368Z,9.04
2022-12-08T22:52:01.894Z,9.14
2022-12-08T22:54:28.290Z,8.03
2022-12-08T22:56:54.757Z,8.45
2022-12-08T22:59:21.127Z,8.68
2022-12-08T23:01:47.502Z,8.13
2022-12-08T23:04:17.644Z,8.09
2022-12-08T23:06:44.742Z,8.21
2022-12-08T23:09:11.343Z,8.04
2022-12-08T23:11:37.819Z,8.05
2022-12-08T23:14:04.375Z,8.24
2022-12-08T23:16:31.176Z,7.83
2022-12-08T23:18:57.821Z,7.43
2022-12-08T23:21:24.370Z,7.04
2022-12-08T23:23:50.947Z,7.30
2022-12-08T23:26:17.495Z,7.01
2022-12-08T23:28:43.958Z,7.37
2022-12-08T23:31:10.377Z,7.70
2022-12-08T23:33:36.869Z,7.39
2022-12-08T23:36:03.443Z,7.35
2022-12-08T23:38:29.867Z,7.37
2022-12-08T23:40:56.361Z,6.66
2022-12-08T23:43:22.737Z,7.41
2022-12-08T23:45:49.104Z,7.44
2022-12-08T23:48:15.584Z,7.06
2022-12-08T23:50:41.949Z,6.93
2022-12-08T23:53:08.512Z,6.98
2022-12-08T23:55:34.970Z,7.01
2022-12-08T23:58:01.597Z,7.15
